createdAt,value
2022-12-31T00:01:10.596Z,69.18
2022-12-31T00:02:22.499Z,78.63
2022-12-31T00:03:34.409Z,57.92
2022-12-31T00:04:45.883Z,58.88
2022-12-31T00:05:57.400Z,74.55
2022-12-31T00:07:08.886Z,59.08
2022-12-31T00:08:20.480Z,58.08
2022-12-31T00:09:31.942Z,69.88
2022-12-31T00:10:43.396Z,68.95
2022-12-31T00:11:54.885Z,60.63
2022-12-31T00:13:06.374Z,83.55
2022-12-31T00:14:17.855Z,66.53
2022-12-31T00:15:29.287Z,61.50
2022-12-31T00:16:41.603Z,55.75
2022-12-31T00:17:53.132Z,61.00
2022-12-31T00:19:05.209Z,85.93
2022-12-31T00:20:17.342Z,66.72
2022-12-31T00:21:29.798Z,56.60
2022-12-31T00:22:41.284Z,78.80
2022-12-31T00:23:52.736Z,65.47
2022-12-31T00:25:04.467Z,66.00
2022-12-31T00:26:17.211Z,56.97
2022-12-31T00:27:31.812Z,61.15
2022-12-31T00:28:43.346Z,73.15
2022-12-31T00:29:57.190Z,67.53
2022-12-31T00:31:19.457Z,64.10
2022-12-31T00:32:30.960Z,65.90
2022-12-31T00:33:42.762Z,61.55
2022-12-31T00:34:54.234Z,66.25
2022-12-31T00:36:06.983Z,58.00
2022-12-31T00:37:18.412Z,65.57
2022-12-31T00:38:29.873Z,55.47
2022-12-31T00:39:41.285Z,74.78
2022-12-31T00:40:52.695Z,67.55
2022-12-31T00:42:04.245Z,62.15
2022-12-31T00:43:15.691Z,76.63
2022-12-31T00:44:27.121Z,61.92
2022-12-31T00:45:38.556Z,56.45
2022-12-31T00:46:49.992Z,67.70
2022-12-31T00:48:01.467Z,60.40
2022-12-31T00:49:12.967Z,54.10
2022-12-31T00:50:24.655Z,49.80
2022-12-31T00:51:36.097Z,50.50
2022-12-31T00:52:47.531Z,59.20
2022-12-31T00:53:59.163Z,72.43
2022-12-31T00:55:10.614Z,73.90
2022-12-31T00:56:25.776Z,59.53
2022-12-31T00:57:37.263Z,70.45
2022-12-31T00:58:49.413Z,58.30
2022-12-31T01:00:00.884Z,72.78
2022-12-31T01:01:13.424Z,66.70
2022-12-31T01:02:25.071Z,64.60
2022-12-31T01:03:36.841Z,57.63
2022-12-31T01:04:48.345Z,61.45
2022-12-31T01:06:01.480Z,73.97
2022-12-31T01:07:12.972Z,90.80
2022-12-31T01:08:24.475Z,82.97
2022-12-31T01:09:35.958Z,88.93
2022-12-31T01:11:09.043Z,79.75
2022-12-31T01:12:20.456Z,84.75
2022-12-31T01:13:31.925Z,71.40
2022-12-31T01:14:43.409Z,84.72
2022-12-31T01:15:54.854Z,63.30
2022-12-31T01:17:06.367Z,68.50
2022-12-31T01:18:17.871Z,77.00
2022-12-31T01:19:29.466Z,68.43
2022-12-31T01:20:42.005Z,64.65
2022-12-31T01:21:53.445Z,71.10
2022-12-31T01:23:05.739Z,69.28
2022-12-31T01:24:17.206Z,71.80
2022-12-31T01:25:28.676Z,87.28
2022-12-31T01:26:40.383Z,77.38
2022-12-31T01:27:51.936Z,84.43
2022-12-31T01:29:03.967Z,77.93
2022-12-31T01:30:15.439Z,76.78
2022-12-31T01:31:27.280Z,80.97
2022-12-31T01:32:38.763Z,78.57
2022-12-31T01:33:50.956Z,72.15
2022-12-31T01:35:02.432Z,71.00
2022-12-31T01:36:16.842Z,70.25
2022-12-31T01:37:30.435Z,73.95
2022-12-31T01:38:42.427Z,72.22
2022-12-31T01:39:53.941Z,83.43
2022-12-31T01:41:05.967Z,71.00
2022-12-31T01:42:17.419Z,70.30
2022-12-31T01:43:43.256Z,60.78
2022-12-31T01:44:55.553Z,61.83
2022-12-31T01:46:07.772Z,79.53
2022-12-31T01:47:22.132Z,56.35
2022-12-31T01:48:33.620Z,61.10
2022-12-31T01:49:48.349Z,61.00
2022-12-31T01:50:59.804Z,68.45
2022-12-31T01:52:31.719Z,60.75
2022-12-31T01:53:43.310Z,45.00
2022-12-31T01:55:18.048Z,55.83
2022-12-31T01:56:29.572Z,45.90
2022-12-31T01:57:41.289Z,53.45
2022-12-31T01:58:54.922Z,52.92
2022-12-31T02:00:06.738Z,58.50
2022-12-31T02:01:22.000Z,59.55
2022-12-31T02:02:33.719Z,41.22
2022-12-31T02:03:45.195Z,56.35
2022-12-31T02:04:58.180Z,56.92
2022-12-31T02:06:20.777Z,56.90
2022-12-31T02:07:32.237Z,63.42
2022-12-31T02:08:43.876Z,61.28
2022-12-31T02:09:55.373Z,63.42
2022-12-31T02:11:24.279Z,68.20
2022-12-31T02:12:35.734Z,63.38
2022-12-31T02:13:47.270Z,70.25
2022-12-31T02:14:58.833Z,74.70
2022-12-31T02:16:30.718Z,58.17
2022-12-31T02:17:42.093Z,57.88
2022-12-31T02:19:16.914Z,78.05
2022-12-31T02:20:43.427Z,85.47
2022-12-31T02:22:03.069Z,60.78
2022-12-31T02:23:33.415Z,70.05
2022-12-31T02:24:47.630Z,65.15
2022-12-31T02:25:59.049Z,88.75
2022-12-31T02:27:13.433Z,63.92
2022-12-31T02:28:33.857Z,75.57
2022-12-31T02:30:04.085Z,57.42
2022-12-31T02:31:17.838Z,63.67
2022-12-31T02:32:44.396Z,51.03
2022-12-31T02:34:18.810Z,57.03
2022-12-31T02:35:32.734Z,56.33
2022-12-31T02:36:45.872Z,61.17
2022-12-31T02:38:00.708Z,71.45
2022-12-31T02:39:12.880Z,53.55
2022-12-31T02:40:24.992Z,43.03
2022-12-31T02:41:51.715Z,70.93
2022-12-31T02:43:03.195Z,49.25
2022-12-31T02:44:28.445Z,41.80
2022-12-31T02:45:48.614Z,41.35
2022-12-31T02:47:05.807Z,42.38
2022-12-31T02:48:22.596Z,50.38
2022-12-31T02:49:52.855Z,41.30
2022-12-31T02:51:30.464Z,42.03
2022-12-31T02:52:44.831Z,36.40
2022-12-31T02:54:25.480Z,52.92
2022-12-31T02:55:57.178Z,40.35
2022-12-31T02:57:24.356Z,41.20
2022-12-31T02:58:57.602Z,65.95
2022-12-31T03:00:32.201Z,55.10
2022-12-31T03:02:03.865Z,50.58
2022-12-31T03:03:15.661Z,63.08
2022-12-31T03:04:34.249Z,54.58
2022-12-31T03:05:46.892Z,63.95
2022-12-31T03:07:08.602Z,45.78
2022-12-31T03:08:24.004Z,48.25
2022-12-31T03:09:36.053Z,63.95
2022-12-31T03:10:47.562Z,49.65
2022-12-31T03:12:17.832Z,59.22
2022-12-31T03:13:29.307Z,49.78
2022-12-31T03:14:40.760Z,61.05
2022-12-31T03:15:52.251Z,60.70
2022-12-31T03:17:03.756Z,52.92
2022-12-31T03:18:16.351Z,50.83
2022-12-31T03:19:46.589Z,51.55
2022-12-31T03:21:16.492Z,38.40
2022-12-31T03:22:28.017Z,60.53
2022-12-31T03:23:41.474Z,50.05
2022-12-31T03:25:11.676Z,58.03
2022-12-31T03:26:23.083Z,52.35
2022-12-31T03:27:34.533Z,72.82
2022-12-31T03:28:47.836Z,41.42
2022-12-31T03:29:59.458Z,50.70
2022-12-31T03:31:11.543Z,48.20
2022-12-31T03:32:23.007Z,47.42
2022-12-31T03:33:38.222Z,45.50
2022-12-31T03:34:49.697Z,41.35
2022-12-31T03:36:03.842Z,43.28
2022-12-31T03:37:15.298Z,52.05
2022-12-31T03:38:26.900Z,56.72
2022-12-31T03:39:38.386Z,63.22
2022-12-31T03:40:51.584Z,56.83
2022-12-31T03:42:03.017Z,36.78
2022-12-31T03:43:14.768Z,54.33
2022-12-31T03:44:26.193Z,45.13
2022-12-31T03:45:38.049Z,60.90
2022-12-31T03:46:49.521Z,40.50
2022-12-31T03:48:05.190Z,51.47
2022-12-31T03:49:16.622Z,49.05
2022-12-31T03:50:28.114Z,46.05
2022-12-31T03:51:39.564Z,30.55
2022-12-31T03:52:51.006Z,37.17
2022-12-31T03:54:02.471Z,29.88
2022-12-31T03:55:14.488Z,42.75
2022-12-31T03:56:25.949Z,42.38
2022-12-31T03:57:38.006Z,52.58
2022-12-31T03:58:49.471Z,36.05
2022-12-31T04:00:00.881Z,48.03
2022-12-31T04:01:12.397Z,35.70
2022-12-31T04:02:28.526Z,39.95
2022-12-31T04:03:40.543Z,39.13
2022-12-31T04:04:52.007Z,39.30
2022-12-31T04:06:03.494Z,40.15
2022-12-31T04:07:14.997Z,45.85
2022-12-31T04:08:26.500Z,31.00
2022-12-31T04:09:38.008Z,43.78
2022-12-31T04:10:49.444Z,37.92
2022-12-31T04:12:00.913Z,33.03
2022-12-31T04:13:12.347Z,67.25
2022-12-31T04:14:23.807Z,56.15
2022-12-31T04:15:35.244Z,38.42
2022-12-31T04:16:46.837Z,46.35
2022-12-31T04:17:58.332Z,41.97
2022-12-31T04:19:10.016Z,43.78
2022-12-31T04:20:21.510Z,38.38
2022-12-31T04:21:35.177Z,29.60
2022-12-31T04:22:46.833Z,40.67
2022-12-31T04:23:58.418Z,33.35
2022-12-31T04:25:13.065Z,39.88
2022-12-31T04:26:24.530Z,39.83
2022-12-31T04:27:36.016Z,44.10
2022-12-31T04:28:47.423Z,42.15
2022-12-31T04:29:58.863Z,33.83
2022-12-31T04:31:11.328Z,47.28
2022-12-31T04:32:22.809Z,37.88
2022-12-31T04:33:34.351Z,55.83
2022-12-31T04:34:48.029Z,47.90
2022-12-31T04:36:07.224Z,40.45
2022-12-31T04:37:18.694Z,60.80
2022-12-31T04:38:30.324Z,40.78
2022-12-31T04:39:41.798Z,36.63
2022-12-31T04:41:12.020Z,47.05
2022-12-31T04:42:23.519Z,45.75
2022-12-31T04:43:34.940Z,43.55
2022-12-31T04:44:46.415Z,40.78
2022-12-31T04:45:58.072Z,47.63
2022-12-31T04:47:09.588Z,41.22
2022-12-31T04:48:20.991Z,48.53
2022-12-31T04:49:32.600Z,40.35
2022-12-31T04:50:45.958Z,44.47
2022-12-31T04:51:57.416Z,52.25
2022-12-31T04:53:08.859Z,52.05
2022-12-31T04:54:20.311Z,48.97
2022-12-31T04:55:31.892Z,49.22
2022-12-31T04:56:43.289Z,44.90
2022-12-31T04:57:54.741Z,42.97
2022-12-31T04:59:07.288Z,49.92
2022-12-31T05:00:18.800Z,52.47
2022-12-31T05:01:30.337Z,44.33
2022-12-31T05:02:42.012Z,58.70
2022-12-31T05:03:53.582Z,55.83
2022-12-31T05:05:05.211Z,55.08
2022-12-31T05:06:21.531Z,70.68
2022-12-31T05:07:32.966Z,53.58
2022-12-31T05:08:44.430Z,50.78
2022-12-31T05:09:55.827Z,45.55
2022-12-31T05:11:07.516Z,31.83
2022-12-31T05:12:19.080Z,48.47
2022-12-31T05:13:33.332Z,52.42
2022-12-31T05:14:45.250Z,40.03
2022-12-31T05:15:56.900Z,49.25
2022-12-31T05:17:08.326Z,32.30
2022-12-31T05:18:19.801Z,40.10
2022-12-31T05:19:31.281Z,30.48
2022-12-31T05:20:42.725Z,44.55
2022-12-31T05:22:12.627Z,39.90
2022-12-31T05:23:24.443Z,33.33
2022-12-31T05:24:36.216Z,26.92
2022-12-31T05:25:48.407Z,34.28
2022-12-31T05:26:59.910Z,33.75
2022-12-31T05:28:11.887Z,28.02
2022-12-31T05:29:23.291Z,29.27
2022-12-31T05:30:34.981Z,21.58
2022-12-31T05:31:46.483Z,27.10
2022-12-31T05:32:58.012Z,29.88
2022-12-31T05:34:09.435Z,21.60
2022-12-31T05:35:20.884Z,30.15
2022-12-31T05:36:32.402Z,27.25
2022-12-31T05:37:44.046Z,29.25
2022-12-31T05:38:56.630Z,16.30
2022-12-31T05:40:08.449Z,23.80
2022-12-31T05:41:19.879Z,25.35
2022-12-31T05:42:33.411Z,29.33
2022-12-31T05:43:44.831Z,31.58
2022-12-31T05:44:56.315Z,30.92
2022-12-31T05:46:07.856Z,28.30
2022-12-31T05:47:19.399Z,22.15
2022-12-31T05:48:31.407Z,37.25
2022-12-31T05:49:42.886Z,25.02
2022-12-31T05:50:54.378Z,20.42
2022-12-31T05:52:06.799Z,31.42
2022-12-31T05:53:18.386Z,25.38
2022-12-31T05:54:29.808Z,31.02
2022-12-31T05:55:41.255Z,24.73
2022-12-31T05:56:52.755Z,27.60
2022-12-31T05:58:04.198Z,26.00
2022-12-31T05:59:15.654Z,23.92
2022-12-31T06:00:27.114Z,27.13
2022-12-31T06:01:38.581Z,33.42
2022-12-31T06:02:50.140Z,28.85
2022-12-31T06:04:01.646Z,26.50
2022-12-31T06:05:13.128Z,31.85
2022-12-31T06:06:24.629Z,26.67
2022-12-31T06:07:36.262Z,30.02
2022-12-31T06:08:51.071Z,32.53
2022-12-31T06:10:02.510Z,39.58
2022-12-31T06:11:14.009Z,42.92
2022-12-31T06:12:25.507Z,31.13
2022-12-31T06:13:36.950Z,40.45
2022-12-31T06:14:48.458Z,28.73
2022-12-31T06:16:05.004Z,31.20
2022-12-31T06:17:16.619Z,26.02
2022-12-31T06:18:28.077Z,28.05
2022-12-31T06:19:39.500Z,30.23
2022-12-31T06:20:51.170Z,25.80
2022-12-31T06:22:02.960Z,23.30
2022-12-31T06:23:14.427Z,31.58
2022-12-31T06:24:25.842Z,26.13
2022-12-31T06:25:37.751Z,43.65
2022-12-31T06:26:49.195Z,36.15
2022-12-31T06:28:00.801Z,39.13
2022-12-31T06:29:12.222Z,27.15
2022-12-31T06:30:23.662Z,31.40
2022-12-31T06:31:35.167Z,30.98
2022-12-31T06:32:46.688Z,27.77
2022-12-31T06:33:58.166Z,56.25
2022-12-31T06:35:10.017Z,18.00
2022-12-31T06:36:22.377Z,31.05
2022-12-31T06:37:33.832Z,36.83
2022-12-31T06:38:45.324Z,61.78
2022-12-31T06:39:56.815Z,45.95
2022-12-31T06:41:10.290Z,49.45
2022-12-31T06:42:21.722Z,60.63
2022-12-31T06:43:34.328Z,85.65
2022-12-31T06:44:46.936Z,63.95
2022-12-31T06:46:02.093Z,43.72
2022-12-31T06:47:13.582Z,42.40
2022-12-31T06:48:25.020Z,35.88
2022-12-31T06:49:36.458Z,48.35
2022-12-31T06:50:47.965Z,40.47
2022-12-31T06:51:59.396Z,38.58
2022-12-31T06:53:10.817Z,40.30
2022-12-31T06:54:22.316Z,29.58
2022-12-31T06:55:33.954Z,42.08
2022-12-31T06:56:45.579Z,54.70
2022-12-31T06:57:57.197Z,55.08
2022-12-31T06:59:21.504Z,52.35
2022-12-31T07:00:33.103Z,47.30
2022-12-31T07:01:47.787Z,46.38
2022-12-31T07:03:02.353Z,65.57
2022-12-31T07:04:13.793Z,49.67
2022-12-31T07:05:25.193Z,54.83
2022-12-31T07:06:41.331Z,58.97
2022-12-31T07:07:56.182Z,52.33
2022-12-31T07:09:14.324Z,38.58
2022-12-31T07:10:29.507Z,31.77
2022-12-31T07:11:50.660Z,36.15
2022-12-31T07:13:05.231Z,36.08
2022-12-31T07:14:22.576Z,43.20
2022-12-31T07:15:44.239Z,48.67
2022-12-31T07:16:55.693Z,39.15
2022-12-31T07:18:13.902Z,31.73
2022-12-31T07:19:28.389Z,42.75
2022-12-31T07:20:40.141Z,40.83
2022-12-31T07:21:53.253Z,44.83
2022-12-31T07:23:04.838Z,71.88
2022-12-31T07:24:16.609Z,36.88
2022-12-31T07:25:28.435Z,44.80
2022-12-31T07:26:39.882Z,40.38
2022-12-31T07:27:51.346Z,65.68
2022-12-31T07:29:13.503Z,46.75
2022-12-31T07:30:28.373Z,44.63
2022-12-31T07:31:42.575Z,47.90
2022-12-31T07:33:29.398Z,52.78
2022-12-31T07:35:01.067Z,57.83
2022-12-31T07:36:15.535Z,54.38
2022-12-31T07:37:42.196Z,60.15
2022-12-31T07:38:56.625Z,56.38
2022-12-31T07:40:11.302Z,57.90
2022-12-31T07:41:41.485Z,69.22
2022-12-31T07:42:55.680Z,74.88
2022-12-31T07:44:19.205Z,73.10
2022-12-31T07:45:30.589Z,74.97
2022-12-31T07:46:42.164Z,51.78
2022-12-31T07:47:58.898Z,35.78
2022-12-31T07:49:14.265Z,53.42
2022-12-31T07:50:25.787Z,37.42
2022-12-31T07:51:37.598Z,44.05
2022-12-31T07:52:49.167Z,48.95
2022-12-31T07:54:00.768Z,47.40
2022-12-31T07:55:12.390Z,46.72
2022-12-31T07:56:23.911Z,41.30
2022-12-31T07:57:38.628Z,33.63
2022-12-31T07:58:56.500Z,56.92
2022-12-31T08:00:11.998Z,54.78
2022-12-31T08:01:33.468Z,37.53
2022-12-31T08:02:48.253Z,49.78
2022-12-31T08:03:59.747Z,50.33
2022-12-31T08:05:23.471Z,58.15
2022-12-31T08:06:43.999Z,56.67
2022-12-31T08:07:55.476Z,51.33
2022-12-31T08:09:24.591Z,36.67
2022-12-31T08:10:39.022Z,46.78
2022-12-31T08:11:50.475Z,43.83
2022-12-31T08:13:03.593Z,54.92
2022-12-31T08:14:15.888Z,57.42
2022-12-31T08:15:30.501Z,48.08
2022-12-31T08:16:42.637Z,60.28
2022-12-31T08:17:54.569Z,59.88
2022-12-31T08:19:06.311Z,61.67
2022-12-31T08:20:18.315Z,51.00
2022-12-31T08:21:34.833Z,65.07
2022-12-31T08:23:01.741Z,73.00
2022-12-31T08:24:16.196Z,51.70
2022-12-31T08:25:31.503Z,59.70
2022-12-31T08:27:03.702Z,65.85
2022-12-31T08:28:22.764Z,73.68
2022-12-31T08:29:34.709Z,55.50
2022-12-31T08:30:48.974Z,64.15
2022-12-31T08:32:00.598Z,80.78
2022-12-31T08:33:30.265Z,61.53
2022-12-31T08:34:48.582Z,71.20
2022-12-31T08:36:11.489Z,57.40
2022-12-31T08:37:55.103Z,68.53
2022-12-31T08:39:18.771Z,79.93
2022-12-31T08:40:48.744Z,58.55
2022-12-31T08:42:02.354Z,72.70
2022-12-31T08:43:17.027Z,77.93
2022-12-31T08:44:31.682Z,68.85
2022-12-31T08:45:51.508Z,73.50
2022-12-31T08:47:03.057Z,76.55
2022-12-31T08:48:33.073Z,84.07
2022-12-31T08:49:44.678Z,73.13
2022-12-31T08:50:56.207Z,65.05
2022-12-31T08:52:14.907Z,84.15
2022-12-31T08:53:26.851Z,85.93
2022-12-31T08:54:38.451Z,91.28
2022-12-31T08:55:53.517Z,93.35
2022-12-31T08:57:05.012Z,79.70
2022-12-31T08:58:19.967Z,73.03
2022-12-31T08:59:50.148Z,67.18
2022-12-31T09:01:02.449Z,70.25
2022-12-31T09:02:14.272Z,53.92
2022-12-31T09:03:25.839Z,55.75
2022-12-31T09:05:00.335Z,54.97
2022-12-31T09:06:11.748Z,42.92
2022-12-31T09:07:27.045Z,34.78
2022-12-31T09:08:47.757Z,40.83
2022-12-31T09:09:59.609Z,60.17
2022-12-31T09:11:28.296Z,63.55
2022-12-31T09:12:49.657Z,47.80
2022-12-31T09:14:16.626Z,54.25
2022-12-31T09:15:38.105Z,50.70
2022-12-31T09:16:55.339Z,80.07
2022-12-31T09:18:08.225Z,60.53
2022-12-31T09:19:20.105Z,39.50
2022-12-31T09:20:42.776Z,56.15
2022-12-31T09:21:55.319Z,97.57
2022-12-31T09:23:07.232Z,95.30
2022-12-31T09:24:18.787Z,65.47
2022-12-31T09:25:30.385Z,47.08
2022-12-31T09:26:44.602Z,46.65
2022-12-31T09:28:11.183Z,52.55
2022-12-31T09:29:25.708Z,44.58
2022-12-31T09:30:43.126Z,48.70
2022-12-31T09:32:30.715Z,56.40
2022-12-31T09:33:44.855Z,62.13
2022-12-31T09:35:09.917Z,73.03
2022-12-31T09:36:32.409Z,88.40
2022-12-31T09:37:51.830Z,151.63
2022-12-31T09:39:15.457Z,117.10
2022-12-31T09:40:27.016Z,105.18
2022-12-31T09:42:01.667Z,75.82
2022-12-31T09:43:16.280Z,183.77
2022-12-31T09:44:33.804Z,172.05
2022-12-31T09:46:05.599Z,92.47
2022-12-31T09:47:49.661Z,90.43
2022-12-31T09:49:19.805Z,62.45
2022-12-31T09:50:40.375Z,52.72
2022-12-31T09:52:00.845Z,70.13
2022-12-31T09:53:13.492Z,55.40
2022-12-31T09:54:40.027Z,72.55
2022-12-31T09:55:51.515Z,46.63
2022-12-31T09:57:06.159Z,47.22
2022-12-31T09:58:29.946Z,28.20
2022-12-31T10:00:04.550Z,51.20
2022-12-31T10:01:22.846Z,36.92
2022-12-31T10:02:44.204Z,38.20
2022-12-31T10:03:59.114Z,33.70
2022-12-31T10:05:25.695Z,42.75
2022-12-31T10:06:45.255Z,34.42
2022-12-31T10:08:02.766Z,41.75
2022-12-31T10:09:23.324Z,43.75
2022-12-31T10:10:41.847Z,28.75
2022-12-31T10:12:12.157Z,35.10
2022-12-31T10:13:37.661Z,38.47
2022-12-31T10:14:52.050Z,34.95
2022-12-31T10:16:19.286Z,44.13
2022-12-31T10:17:33.892Z,40.40
2022-12-31T10:18:48.282Z,44.90
2022-12-31T10:20:05.832Z,33.05
2022-12-31T10:21:36.127Z,45.33
2022-12-31T10:22:53.476Z,41.65
2022-12-31T10:24:20.478Z,43.00
2022-12-31T10:25:41.307Z,49.08
2022-12-31T10:26:55.532Z,46.00
2022-12-31T10:28:19.315Z,55.67
2022-12-31T10:29:50.800Z,42.55
2022-12-31T10:31:02.308Z,41.45
2022-12-31T10:32:18.778Z,43.58
2022-12-31T10:33:39.332Z,53.70
2022-12-31T10:34:54.396Z,47.80
2022-12-31T10:36:08.876Z,46.83
2022-12-31T10:37:24.039Z,49.40
2022-12-31T10:38:44.312Z,45.75
2022-12-31T10:39:55.882Z,47.03
2022-12-31T10:41:43.074Z,58.28
2022-12-31T10:43:03.386Z,40.00
2022-12-31T10:44:17.454Z,49.20
2022-12-31T10:45:47.572Z,51.17
2022-12-31T10:47:14.741Z,52.92
2022-12-31T10:48:29.295Z,43.47
2022-12-31T10:49:40.740Z,47.08
2022-12-31T10:50:52.208Z,41.38
2022-12-31T10:52:19.289Z,50.42
2022-12-31T10:53:46.081Z,46.38
2022-12-31T10:55:15.861Z,53.70
2022-12-31T10:56:30.184Z,52.60
2022-12-31T10:57:50.874Z,56.80
2022-12-31T10:59:21.232Z,46.63
2022-12-31T11:00:55.927Z,54.25
2022-12-31T11:02:13.535Z,57.38
2022-12-31T11:03:29.303Z,44.00
2022-12-31T11:04:59.863Z,152.55
2022-12-31T11:06:14.113Z,62.28
2022-12-31T11:07:35.547Z,48.05
2022-12-31T11:08:46.983Z,41.92
2022-12-31T11:10:01.588Z,47.83
2022-12-31T11:11:39.108Z,54.05
2022-12-31T11:12:50.553Z,51.95
2022-12-31T11:14:10.937Z,44.25
2022-12-31T11:15:32.153Z,55.35
2022-12-31T11:16:53.044Z,41.50
2022-12-31T11:18:19.804Z,55.75
2022-12-31T11:19:44.107Z,28.35
2022-12-31T11:21:00.225Z,34.70
2022-12-31T11:22:14.555Z,40.78
2022-12-31T11:23:46.274Z,42.65
2022-12-31T11:25:17.039Z,34.35
2022-12-31T11:26:34.553Z,38.67
2022-12-31T11:27:49.297Z,38.72
2022-12-31T11:29:01.577Z,38.83
2022-12-31T11:30:21.991Z,39.88
2022-12-31T11:32:05.936Z,42.85
2022-12-31T11:33:17.437Z,31.92
2022-12-31T11:34:31.752Z,32.83
2022-12-31T11:35:52.487Z,44.75
2022-12-31T11:37:22.477Z,35.50
2022-12-31T11:38:37.720Z,25.73
2022-12-31T11:40:15.324Z,35.20
2022-12-31T11:41:35.776Z,33.30
2022-12-31T11:42:53.253Z,31.08
2022-12-31T11:44:23.502Z,47.70
2022-12-31T11:46:02.186Z,44.00
2022-12-31T11:47:25.832Z,58.22
2022-12-31T11:48:46.122Z,38.00
2022-12-31T11:50:09.225Z,53.40
2022-12-31T11:51:26.449Z,40.13
2022-12-31T11:52:37.926Z,37.95
2022-12-31T11:53:57.607Z,36.53
2022-12-31T11:55:27.743Z,31.75
2022-12-31T11:56:41.255Z,39.55
2022-12-31T11:57:52.917Z,41.28
2022-12-31T11:59:12.064Z,27.80
2022-12-31T12:00:26.792Z,22.17
2022-12-31T12:01:44.090Z,21.23
2022-12-31T12:02:59.672Z,25.05
2022-12-31T12:04:11.256Z,47.00
2022-12-31T12:05:24.662Z,62.75
2022-12-31T12:06:36.171Z,39.50
2022-12-31T12:07:48.494Z,23.48
2022-12-31T12:09:02.680Z,22.10
2022-12-31T12:10:35.571Z,19.17
2022-12-31T12:11:57.578Z,22.55
2022-12-31T12:13:11.851Z,25.45
2022-12-31T12:14:33.565Z,31.27
2022-12-31T12:15:47.131Z,20.58
2022-12-31T12:17:04.877Z,16.08
2022-12-31T12:18:28.432Z,18.13
2022-12-31T12:19:44.555Z,21.35
2022-12-31T12:21:22.271Z,22.63
2022-12-31T12:22:35.467Z,20.23
2022-12-31T12:24:07.133Z,29.27
2022-12-31T12:25:20.724Z,18.70
2022-12-31T12:26:35.434Z,23.60
2022-12-31T12:27:46.880Z,21.08
2022-12-31T12:29:09.509Z,23.05
2022-12-31T12:30:25.525Z,19.92
2022-12-31T12:31:38.337Z,18.92
2022-12-31T12:32:53.053Z,20.45
2022-12-31T12:34:04.827Z,16.05
2022-12-31T12:35:17.237Z,19.95
2022-12-31T12:36:28.747Z,16.85
2022-12-31T12:37:40.198Z,19.60
2022-12-31T12:39:02.339Z,16.63
2022-12-31T12:40:33.436Z,15.20
2022-12-31T12:41:45.682Z,17.00
2022-12-31T12:42:57.353Z,22.88
2022-12-31T12:44:15.779Z,21.05
2022-12-31T12:45:29.515Z,18.00
2022-12-31T12:46:48.285Z,17.98
2022-12-31T12:48:01.841Z,25.85
2022-12-31T12:49:24.142Z,19.85
2022-12-31T12:50:41.813Z,22.40
2022-12-31T12:52:08.518Z,20.58
2022-12-31T12:53:29.503Z,19.67
2022-12-31T12:54:55.837Z,24.88
2022-12-31T12:56:07.311Z,25.73
2022-12-31T12:57:18.930Z,25.73
2022-12-31T12:58:33.243Z,23.73
2022-12-31T12:59:53.812Z,30.50
2022-12-31T13:01:30.403Z,33.72
2022-12-31T13:02:48.896Z,26.20
2022-12-31T13:04:35.486Z,25.48
2022-12-31T13:06:05.899Z,31.90
2022-12-31T13:07:23.403Z,25.02
2022-12-31T13:08:43.954Z,31.73
2022-12-31T13:09:55.472Z,32.05
2022-12-31T13:11:26.485Z,34.83
2022-12-31T13:13:13.917Z,28.77
2022-12-31T13:14:27.995Z,28.80
2022-12-31T13:15:45.567Z,26.83
2022-12-31T13:17:04.143Z,27.52
2022-12-31T13:18:18.580Z,33.90
2022-12-31T13:19:30.194Z,24.70
2022-12-31T13:20:47.550Z,39.45
2022-12-31T13:22:05.178Z,28.48
2022-12-31T13:23:16.652Z,35.28
2022-12-31T13:24:47.056Z,46.15
2022-12-31T13:26:20.948Z,55.67
2022-12-31T13:27:37.664Z,50.58
2022-12-31T13:28:52.600Z,39.17
2022-12-31T13:30:07.419Z,32.10
2022-12-31T13:31:31.789Z,34.50
2022-12-31T13:32:45.905Z,33.55
2022-12-31T13:34:04.538Z,28.85
2022-12-31T13:35:19.128Z,27.77
2022-12-31T13:36:32.966Z,36.67
2022-12-31T13:37:45.185Z,38.95
2022-12-31T13:38:58.597Z,39.50
2022-12-31T13:40:31.471Z,37.00
2022-12-31T13:41:50.179Z,36.20
2022-12-31T13:43:06.039Z,32.63
2022-12-31T13:44:29.152Z,39.25
2022-12-31T13:45:43.317Z,33.45
2022-12-31T13:47:04.346Z,33.70
2022-12-31T13:48:22.889Z,35.90
2022-12-31T13:49:46.302Z,37.17
2022-12-31T13:51:01.633Z,38.38
2022-12-31T13:52:13.058Z,44.08
2022-12-31T13:53:32.277Z,54.20
2022-12-31T13:55:02.127Z,55.60
2022-12-31T13:56:15.633Z,48.03
2022-12-31T13:57:47.362Z,57.22
2022-12-31T13:59:04.948Z,38.63
2022-12-31T14:00:30.138Z,28.20
2022-12-31T14:02:14.131Z,30.55
2022-12-31T14:03:27.602Z,38.35
2022-12-31T14:04:51.006Z,25.13
2022-12-31T14:06:02.494Z,21.15
2022-12-31T14:07:17.935Z,24.95
2022-12-31T14:08:29.547Z,23.08
2022-12-31T14:09:41.231Z,20.60
2022-12-31T14:10:52.708Z,25.85
2022-12-31T14:12:07.289Z,19.50
2022-12-31T14:13:43.516Z,22.63
2022-12-31T14:14:54.938Z,23.63
2022-12-31T14:16:06.630Z,19.38
2022-12-31T14:17:18.300Z,20.90
2022-12-31T14:18:42.453Z,20.35
2022-12-31T14:20:01.927Z,18.52
2022-12-31T14:21:22.319Z,16.45
2022-12-31T14:22:33.842Z,25.88
2022-12-31T14:24:04.053Z,21.10
2022-12-31T14:25:29.130Z,22.30
2022-12-31T14:26:49.534Z,20.55
2022-12-31T14:28:01.883Z,19.98
2022-12-31T14:29:26.723Z,20.42
2022-12-31T14:30:41.456Z,19.05
2022-12-31T14:31:56.302Z,18.60
2022-12-31T14:33:10.976Z,26.40
2022-12-31T14:34:47.871Z,20.95
2022-12-31T14:36:10.854Z,19.08
2022-12-31T14:37:22.438Z,21.30
2022-12-31T14:38:52.460Z,16.90
2022-12-31T14:40:28.208Z,16.10
2022-12-31T14:41:54.832Z,17.63
2022-12-31T14:43:13.570Z,25.90
2022-12-31T14:44:41.155Z,30.42
2022-12-31T14:45:53.115Z,19.33
2022-12-31T14:47:10.686Z,22.20
2022-12-31T14:48:22.456Z,15.30
2022-12-31T14:49:33.963Z,15.60
2022-12-31T14:50:46.078Z,19.10
2022-12-31T14:52:07.695Z,13.45
2022-12-31T14:53:23.224Z,14.00
2022-12-31T14:54:36.118Z,12.88
2022-12-31T14:55:56.585Z,14.15
2022-12-31T14:57:19.738Z,15.35
2022-12-31T14:58:36.018Z,17.92
2022-12-31T14:59:55.492Z,27.70
2022-12-31T15:01:19.802Z,19.20
2022-12-31T15:02:34.156Z,19.50
2022-12-31T15:03:46.459Z,17.73
2022-12-31T15:05:11.451Z,15.20
2022-12-31T15:06:23.107Z,11.85
2022-12-31T15:07:39.611Z,16.38
2022-12-31T15:09:09.843Z,24.67
2022-12-31T15:10:34.209Z,20.63
2022-12-31T15:11:46.330Z,17.33
2022-12-31T15:13:07.001Z,18.30
2022-12-31T15:14:37.391Z,17.80
2022-12-31T15:16:13.062Z,14.85
2022-12-31T15:17:30.971Z,22.50
2022-12-31T15:18:42.410Z,21.58
2022-12-31T15:20:08.950Z,20.58
2022-12-31T15:21:32.221Z,21.73
2022-12-31T15:22:45.372Z,21.52
2022-12-31T15:23:57.039Z,33.70
2022-12-31T15:25:41.115Z,22.73
2022-12-31T15:26:54.732Z,25.38
2022-12-31T15:28:23.482Z,70.22
2022-12-31T15:29:45.607Z,33.97
2022-12-31T15:31:03.643Z,32.63
2022-12-31T15:32:28.897Z,26.80
2022-12-31T15:33:41.889Z,35.60
2022-12-31T15:35:04.075Z,25.70
2022-12-31T15:36:20.458Z,29.05
2022-12-31T15:37:35.084Z,23.80
2022-12-31T15:38:47.918Z,32.50
2022-12-31T15:40:07.777Z,32.72
2022-12-31T15:41:19.391Z,38.63
2022-12-31T15:42:38.126Z,39.00
2022-12-31T15:44:10.926Z,38.97
2022-12-31T15:45:33.044Z,37.90
2022-12-31T15:46:44.853Z,24.63
2022-12-31T15:47:58.096Z,21.08
2022-12-31T15:49:18.339Z,18.77
2022-12-31T15:50:30.216Z,16.08
2022-12-31T15:52:00.889Z,19.00
2022-12-31T15:53:29.603Z,15.88
2022-12-31T15:55:07.594Z,12.15
2022-12-31T15:56:22.484Z,16.83
2022-12-31T15:57:37.654Z,25.63
2022-12-31T15:58:51.546Z,19.05
2022-12-31T16:00:07.219Z,14.38
2022-12-31T16:01:23.298Z,21.17
2022-12-31T16:02:35.284Z,19.73
2022-12-31T16:03:49.603Z,20.88
2022-12-31T16:05:01.199Z,21.60
2022-12-31T16:06:14.377Z,20.02
2022-12-31T16:07:27.623Z,22.20
2022-12-31T16:08:40.574Z,23.70
2022-12-31T16:09:56.032Z,31.33
2022-12-31T16:11:08.814Z,66.10
2022-12-31T16:12:25.329Z,46.55
2022-12-31T16:13:40.709Z,44.63
2022-12-31T16:14:54.291Z,26.30
2022-12-31T16:16:07.993Z,21.05
2022-12-31T16:17:25.638Z,16.73
2022-12-31T16:18:38.457Z,15.68
2022-12-31T16:19:49.922Z,55.40
2022-12-31T16:21:01.579Z,33.33
2022-12-31T16:22:17.411Z,35.33
2022-12-31T16:23:29.205Z,30.42
2022-12-31T16:25:02.783Z,37.97
2022-12-31T16:26:12.912Z,34.05
2022-12-31T16:27:25.496Z,31.50
2022-12-31T16:28:37.089Z,30.90